< < Back
Terminal Aerodrome Forecast


Current Version              Previous Versions:   1  2  3  4  5  6  7  8  9  

Terminal Aerodrome Forecast

031
FTUS42 KJAX 031120
TAFSSI
TAF
KSSI 031120Z 0312/0412 23008KT P6SM SCT015 BKN080
     FM031400 25010KT P6SM VCSH SCT025 BKN080
     FM031800 22010KT P6SM VCTS BKN040CB
     FM040000 23005KT P6SM -RA VCTS SCT040CB OVC100=



Latest METAR

994
SAUS70 KWBC 032200 RRG
MTRSSI
METAR KSSI 032153Z AUTO 25009KT 10SM SCT075 SCT085 29/18 A2981 RMK AO2
SLP095 T02940183


USA.gov is the U.S. government's official web portal to all federal, state and local government web resources and services.